Time;durP1;ratioP1;P1;durP2;ratioP2;P2;SDS_P1;SDS_P2;PMS_P1;PMS_P2;Temp;Humidity;BMP_temperature;BMP_pressure;BME280_temperature;BME280_humidity;BME280_pressure;Samples;Min_cycle;Max_cycle;Signal;HPM_P1;HPM_P2
2021/06/20 00:01:45;;;;;;;7.30;5.20;;;22.50;99.90;;;;;;5071989;28;20504;-38
2021/06/20 00:04:11;;;;;;;6.90;5.37;;;22.40;99.90;;;;;;5086432;28;20421;-39
2021/06/20 00:06:38;;;;;;;6.53;5.57;;;22.50;99.90;;;;;;5072006;28;20426;-38
2021/06/20 00:09:13;;;;;;;7.47;6.13;;;22.60;99.90;;;;;;5089384;28;20242;-38
2021/06/20 00:11:41;;;;;;;7.50;5.53;;;22.60;99.90;;;;;;5087842;28;20496;-38
2021/06/20 00:14:08;;;;;;;6.60;5.27;;;22.50;99.90;;;;;;5086278;28;20423;-38
2021/06/20 00:16:35;;;;;;;7.57;5.30;;;22.50;99.90;;;;;;5089239;28;20433;-38
2021/06/20 00:19:02;;;;;;;5.83;5.20;;;22.50;99.90;;;;;;5089391;28;20874;-38
2021/06/20 00:21:27;;;;;;;7.47;5.70;;;22.40;99.90;;;;;;5089894;28;20838;-38
2021/06/20 00:23:53;;;;;;;8.10;5.40;;;22.40;99.90;;;;;;5089701;28;20426;-38
2021/06/20 00:26:19;;;;;;;6.07;5.43;;;22.40;99.90;;;;;;5088414;28;20418;-38
2021/06/20 00:28:45;;;;;;;5.37;4.87;;;22.40;99.90;;;;;;5087117;28;20201;-38
2021/06/20 00:31:11;;;;;;;7.47;5.03;;;22.40;99.90;;;;;;5065393;28;20655;-38
2021/06/20 00:33:39;;;;;;;6.63;4.33;;;22.30;99.90;;;;;;5075809;28;20630;-38
2021/06/20 00:36:06;;;;;;;6.07;4.60;;;22.30;99.90;;;;;;5089783;28;20426;-38
2021/06/20 00:38:31;;;;;;;6.93;5.20;;;22.20;99.90;;;;;;5071007;28;20951;-38
2021/06/20 00:40:57;;;;;;;5.77;4.77;;;22.10;99.90;;;;;;5088299;28;20476;-39
2021/06/20 00:43:23;;;;;;;9.00;5.53;;;22.10;99.90;;;;;;5080184;28;20192;-38
2021/06/20 00:45:48;;;;;;;8.60;5.50;;;22.10;99.90;;;;;;5050495;28;20187;-38
2021/06/20 00:48:14;;;;;;;7.80;5.37;;;22.00;99.90;;;;;;5089480;28;20276;-38
2021/06/20 00:50:40;;;;;;;5.80;5.27;;;22.10;99.90;;;;;;5088727;28;20192;-39
2021/06/20 00:53:06;;;;;;;8.43;5.50;;;22.00;99.90;;;;;;5089732;28;20192;-38
2021/06/20 00:55:34;;;;;;;8.53;5.87;;;22.00;99.90;;;;;;5089050;28;20430;-38
2021/06/20 00:58:01;;;;;;;13.60;4.90;;;22.00;99.90;;;;;;5080197;28;20815;-38
2021/06/20 01:00:28;;;;;;;6.63;5.00;;;21.90;99.90;;;;;;5065593;28;20419;-39
2021/06/20 01:02:54;;;;;;;4.87;4.37;;;21.90;99.90;;;;;;5089104;28;20418;-38
2021/06/20 01:05:20;;;;;;;5.57;4.60;;;21.80;99.90;;;;;;5088808;28;20459;-38
2021/06/20 01:07:50;;;;;;;4.80;3.70;;;21.80;99.90;;;;;;5088881;28;20724;-38
2021/06/20 01:10:16;;;;;;;7.00;4.30;;;21.80;99.90;;;;;;5087798;28;20498;-38
2021/06/20 01:12:42;;;;;;;8.13;3.67;;;21.90;99.90;;;;;;5075982;28;21013;-38
2021/06/20 01:15:09;;;;;;;4.50;4.10;;;21.80;99.90;;;;;;5082466;28;20659;-38
2021/06/20 01:17:36;;;;;;;5.93;4.90;;;21.80;99.90;;;;;;5079470;28;20419;-38
2021/06/20 01:20:13;;;;;;;8.17;4.83;;;21.70;99.90;;;;;;5088045;28;20423;-38
2021/06/20 01:22:41;;;;;;;8.30;5.27;;;21.70;99.90;;;;;;5070562;28;20626;-38
2021/06/20 01:25:10;;;;;;;5.00;4.00;;;21.60;99.90;;;;;;5070598;28;20418;-38
2021/06/20 01:27:42;;;;;;;6.73;5.03;;;21.50;99.90;;;;;;5078162;28;20495;-38
2021/06/20 01:30:14;;;;;;;7.10;4.60;;;21.40;99.90;;;;;;5078241;28;20453;-38
2021/06/20 01:32:40;;;;;;;5.10;4.00;;;21.40;99.90;;;;;;5082929;28;20476;-38
2021/06/20 01:35:09;;;;;;;5.40;4.07;;;21.30;99.90;;;;;;5088181;28;20430;-38
2021/06/20 01:37:35;;;;;;;8.03;4.70;;;21.30;99.90;;;;;;5088218;28;20407;-38
2021/06/20 01:40:01;;;;;;;6.97;3.87;;;21.20;99.90;;;;;;5068302;28;20426;-38
2021/06/20 01:42:27;;;;;;;6.53;4.20;;;21.20;99.90;;;;;;5087109;28;20226;-38
2021/06/20 01:44:57;;;;;;;7.30;4.23;;;21.10;99.90;;;;;;5063322;28;20247;-38
2021/06/20 01:47:24;;;;;;;8.37;4.10;;;21.00;99.90;;;;;;5086431;28;20188;-38
2021/06/20 01:49:50;;;;;;;4.57;3.33;;;21.00;99.90;;;;;;5087530;28;20513;-38
2021/06/20 01:52:23;;;;;;;5.83;3.67;;;20.90;99.90;;;;;;5087761;28;20422;-38
2021/06/20 01:54:50;;;;;;;5.17;3.50;;;20.90;99.90;;;;;;5088140;28;20410;-38
2021/06/20 01:57:21;;;;;;;7.10;3.50;;;20.90;99.90;;;;;;5086267;28;20450;-38
2021/06/20 01:59:48;;;;;;;5.13;3.00;;;20.90;99.90;;;;;;5081813;28;20494;-38
2021/06/20 02:02:13;;;;;;;5.50;3.30;;;20.90;99.90;;;;;;5084198;28;20458;-37
2021/06/20 02:04:39;;;;;;;3.90;2.30;;;20.90;99.90;;;;;;5087780;28;20929;-38
2021/06/20 02:07:09;;;;;;;6.30;2.20;;;20.80;99.90;;;;;;5069200;28;20188;-38
2021/06/20 02:09:36;;;;;;;4.70;3.10;;;20.90;99.90;;;;;;5087251;28;20223;-38
2021/06/20 02:12:06;;;;;;;3.27;2.30;;;20.80;99.90;;;;;;5086183;28;20436;-38
2021/06/20 02:14:36;;;;;;;4.90;2.70;;;20.80;99.90;;;;;;5082331;28;20442;-38
2021/06/20 02:17:27;;;;;;;3.77;2.27;;;20.80;99.90;;;;;;5082013;28;20462;-38
2021/06/20 02:19:57;;;;;;;4.77;2.53;;;20.80;99.90;;;;;;5076953;28;20485;-38
2021/06/20 02:22:24;;;;;;;6.03;2.43;;;20.80;99.90;;;;;;5087446;28;20458;-38
2021/06/20 02:24:50;;;;;;;4.07;2.67;;;20.80;99.90;;;;;;5087470;28;20430;-38
2021/06/20 02:27:16;;;;;;;8.00;2.50;;;20.70;99.90;;;;;;5086000;28;20430;-38
2021/06/20 02:29:44;;;;;;;3.43;2.17;;;20.70;99.90;;;;;;5077254;28;20427;-38
2021/06/20 02:32:10;;;;;;;4.67;2.20;;;20.70;99.90;;;;;;5067089;28;20414;-38
2021/06/20 02:34:41;;;;;;;4.37;2.43;;;20.70;99.90;;;;;;5087137;28;20780;-38
2021/06/20 02:37:08;;;;;;;6.90;2.30;;;20.70;99.90;;;;;;5087444;28;20513;-38
2021/06/20 02:39:34;;;;;;;5.53;2.73;;;20.60;99.90;;;;;;5085189;28;20418;-38
2021/06/20 02:42:00;;;;;;;4.80;2.20;;;20.60;99.90;;;;;;5086169;28;20501;-38
2021/06/20 02:44:26;;;;;;;2.23;1.90;;;20.50;99.90;;;;;;5081166;28;20886;-38
2021/06/20 02:46:54;;;;;;;7.47;2.93;;;20.60;99.90;;;;;;5068915;28;20212;-38
2021/06/20 02:49:20;;;;;;;3.80;2.20;;;20.50;99.90;;;;;;5086188;28;20422;-38
2021/06/20 02:51:46;;;;;;;9.47;3.10;;;20.50;99.90;;;;;;5086915;28;20422;-38
2021/06/20 02:54:12;;;;;;;5.93;2.47;;;20.50;99.90;;;;;;5086555;28;20425;-38
2021/06/20 02:56:38;;;;;;;4.47;2.70;;;20.50;99.90;;;;;;5068905;28;20268;-38
2021/06/20 02:59:04;;;;;;;8.57;2.47;;;20.50;99.90;;;;;;5077063;28;20502;-38
2021/06/20 03:01:30;;;;;;;11.03;3.00;;;20.50;99.90;;;;;;5079713;28;20573;-38
2021/06/20 03:03:55;;;;;;;7.60;3.27;;;20.50;99.90;;;;;;5086722;28;20506;-38
2021/06/20 03:06:21;;;;;;;4.70;3.07;;;20.60;99.90;;;;;;5086665;28;20683;-38
2021/06/20 03:08:47;;;;;;;5.13;2.57;;;20.60;99.90;;;;;;5086029;28;20275;-38
2021/06/20 03:11:13;;;;;;;7.10;3.23;;;20.60;99.90;;;;;;5086425;28;20486;-38
2021/06/20 03:13:39;;;;;;;5.97;2.80;;;20.70;99.90;;;;;;5078181;28;20231;-38
2021/06/20 03:16:05;;;;;;;5.40;2.80;;;20.70;99.90;;;;;;5068244;28;20538;-38
2021/06/20 03:18:32;;;;;;;6.90;3.50;;;20.70;99.90;;;;;;5066148;28;20192;-38
2021/06/20 03:20:57;;;;;;;5.77;3.13;;;20.70;99.90;;;;;;5086346;28;20561;-38
2021/06/20 03:23:23;;;;;;;7.70;3.70;;;20.70;99.90;;;;;;5086516;28;20917;-38
2021/06/20 03:25:49;;;;;;;8.23;3.73;;;20.80;99.90;;;;;;5086863;28;20191;-38
2021/06/20 03:28:14;;;;;;;8.57;3.63;;;20.80;99.90;;;;;;5079812;28;20230;-38
2021/06/20 03:30:40;;;;;;;8.10;3.90;;;20.80;99.90;;;;;;5057059;28;20192;-38
2021/06/20 03:33:06;;;;;;;9.83;3.83;;;20.70;99.90;;;;;;5086427;28;20195;-38
2021/06/20 03:35:31;;;;;;;7.70;3.90;;;20.80;99.90;;;;;;5086432;28;20199;-38
2021/06/20 03:37:57;;;;;;;7.97;4.83;;;20.90;99.90;;;;;;5088175;28;20204;-38
2021/06/20 03:40:23;;;;;;;6.93;3.77;;;20.90;99.90;;;;;;5072518;28;20192;-38
2021/06/20 03:42:49;;;;;;;7.27;3.77;;;20.90;99.90;;;;;;5091444;28;20199;-38
2021/06/20 03:45:15;;;;;;;6.27;4.23;;;21.00;99.90;;;;;;5057020;28;20702;-38
2021/06/20 03:47:41;;;;;;;12.77;5.07;;;21.00;99.90;;;;;;5066956;28;20181;-38
2021/06/20 03:50:08;;;;;;;6.80;4.30;;;21.10;99.90;;;;;;5074650;28;20425;-38
2021/06/20 03:52:35;;;;;;;9.80;4.17;;;21.10;99.90;;;;;;5092639;28;20580;-38
2021/06/20 03:55:01;;;;;;;9.27;4.10;;;21.10;99.90;;;;;;5074928;28;20422;-38
2021/06/20 03:57:27;;;;;;;8.47;4.33;;;21.10;99.90;;;;;;5092285;28;20429;-38
2021/06/20 03:59:53;;;;;;;7.17;4.87;;;21.10;99.90;;;;;;5084857;28;20678;-38
2021/06/20 04:02:19;;;;;;;3.93;3.60;;;21.10;99.90;;;;;;5085684;28;20220;-38
2021/06/20 04:04:45;;;;;;;4.53;3.70;;;21.10;99.90;;;;;;5093035;28;20710;-38
2021/06/20 04:07:12;;;;;;;4.70;3.80;;;21.10;99.90;;;;;;5092669;28;20723;-38
2021/06/20 04:09:41;;;;;;;10.13;4.30;;;21.10;99.90;;;;;;5092192;28;20928;-38
2021/06/20 04:12:10;;;;;;;5.47;3.60;;;21.10;99.90;;;;;;5092359;28;20427;-38
2021/06/20 04:14:40;;;;;;;4.50;4.10;;;21.00;99.90;;;;;;5084462;28;20435;-38
2021/06/20 04:17:06;;;;;;;7.93;3.83;;;20.90;99.90;;;;;;5090047;28;20441;-38
2021/06/20 04:19:32;;;;;;;5.83;3.73;;;20.90;99.90;;;;;;5092038;28;20422;-38
2021/06/20 04:21:59;;;;;;;6.60;3.73;;;20.90;99.90;;;;;;5092422;28;20477;-38
2021/06/20 04:24:24;;;;;;;4.93;3.47;;;20.90;99.90;;;;;;5092217;28;20501;-38
2021/06/20 04:26:50;;;;;;;4.33;3.40;;;20.90;99.90;;;;;;5092722;28;20691;-38
2021/06/20 04:29:16;;;;;;;10.70;3.70;;;20.80;99.90;;;;;;5083450;28;20272;-38
2021/06/20 04:31:41;;;;;;;7.53;3.90;;;20.90;99.90;;;;;;5092602;28;20196;-38
2021/06/20 04:34:07;;;;;;;6.43;3.47;;;20.80;99.90;;;;;;5083477;28;20188;-37
2021/06/20 04:36:33;;;;;;;4.67;3.10;;;20.70;99.90;;;;;;5092468;28;20263;-38
2021/06/20 04:38:59;;;;;;;7.57;3.30;;;20.70;99.90;;;;;;5091468;28;20757;-38
2021/06/20 04:41:25;;;;;;;5.67;3.50;;;20.80;99.90;;;;;;5090274;28;20466;-38
2021/06/20 04:46:34;;;;;;;7.80;3.10;;;20.80;99.90;;;;;;5059644;28;21234;-38
2021/06/20 04:49:03;;;;;;;5.67;2.73;;;20.80;99.90;;;;;;5087164;28;20777;-38
2021/06/20 04:51:30;;;;;;;7.27;2.70;;;20.80;99.90;;;;;;5070897;28;20472;-37
2021/06/20 04:53:57;;;;;;;4.57;2.60;;;20.90;99.90;;;;;;5071108;28;20924;-38
2021/06/20 04:56:22;;;;;;;3.00;2.70;;;21.00;99.90;;;;;;5089356;28;20521;-38
2021/06/20 04:58:48;;;;;;;3.10;2.80;;;21.00;99.90;;;;;;5083696;28;21053;-38
2021/06/20 05:01:14;;;;;;;6.00;3.17;;;21.00;99.90;;;;;;5081706;28;20216;-38
2021/06/20 05:03:39;;;;;;;4.20;3.10;;;21.00;99.90;;;;;;5070876;28;20180;-38
2021/06/20 05:06:05;;;;;;;4.20;2.70;;;21.00;99.90;;;;;;5051444;28;20466;-38
2021/06/20 05:08:31;;;;;;;3.40;3.00;;;21.10;99.90;;;;;;5083982;28;20518;-38
2021/06/20 05:10:56;;;;;;;4.43;2.93;;;21.10;99.90;;;;;;5088248;28;20269;-38
2021/06/20 05:13:22;;;;;;;4.57;3.00;;;21.20;99.90;;;;;;5050343;28;20201;-38
2021/06/20 05:15:48;;;;;;;4.33;2.80;;;21.30;99.90;;;;;;5085149;28;20188;-38
2021/06/20 05:18:14;;;;;;;3.20;2.87;;;21.40;99.90;;;;;;5084862;28;20275;-38
2021/06/20 05:20:41;;;;;;;3.80;2.60;;;21.40;99.90;;;;;;5087718;28;20495;-38
2021/06/20 05:23:07;;;;;;;5.63;2.57;;;21.40;99.90;;;;;;5088313;28;20438;-38
2021/06/20 05:25:33;;;;;;;5.20;2.60;;;21.50;99.90;;;;;;5088685;28;20426;-39
2021/06/20 05:27:59;;;;;;;3.27;2.97;;;21.50;99.90;;;;;;5069972;28;20427;-38
2021/06/20 05:30:25;;;;;;;2.83;2.57;;;21.60;99.90;;;;;;5079283;28;20187;-38
2021/06/20 05:32:50;;;;;;;4.33;2.87;;;21.60;99.90;;;;;;5083197;28;20189;-38
2021/06/20 05:35:16;;;;;;;5.40;2.80;;;21.60;99.90;;;;;;5088564;28;20473;-38
2021/06/20 05:37:43;;;;;;;4.00;2.70;;;21.60;99.90;;;;;;5088612;28;20242;-38
2021/06/20 05:40:09;;;;;;;5.40;2.60;;;21.80;99.90;;;;;;5073229;28;20833;-38
2021/06/20 05:42:35;;;;;;;2.60;2.40;;;21.90;99.90;;;;;;5069844;28;20497;-38
2021/06/20 05:45:01;;;;;;;4.90;2.50;;;22.00;99.90;;;;;;5079844;28;20521;-38
2021/06/20 05:47:26;;;;;;;4.63;3.13;;;22.00;99.90;;;;;;5085833;28;20517;-38
2021/06/20 05:49:52;;;;;;;2.90;2.70;;;22.00;99.90;;;;;;5066916;28;20507;-38
2021/06/20 05:52:18;;;;;;;3.40;2.73;;;22.10;99.90;;;;;;5073541;28;20749;-38
2021/06/20 05:54:50;;;;;;;3.30;2.80;;;22.20;99.90;;;;;;5070087;28;20246;-38
2021/06/20 05:57:20;;;;;;;6.93;2.97;;;22.30;99.90;;;;;;5088215;28;20180;-38
2021/06/20 05:59:46;;;;;;;3.90;2.97;;;22.40;99.90;;;;;;5081983;28;20439;-38
2021/06/20 06:02:12;;;;;;;4.93;2.90;;;22.40;99.90;;;;;;5087102;28;20482;-38
2021/06/20 06:04:40;;;;;;;3.20;2.90;;;22.20;99.90;;;;;;5087263;28;20422;-38
2021/06/20 06:07:06;;;;;;;3.13;2.83;;;22.30;99.90;;;;;;5069674;28;20509;-38
2021/06/20 06:09:31;;;;;;;5.63;3.43;;;22.40;99.90;;;;;;5087052;28;20538;-38
2021/06/20 06:11:57;;;;;;;3.80;3.50;;;22.40;99.90;;;;;;5087626;28;20250;-38
2021/06/20 06:14:23;;;;;;;4.13;3.47;;;22.20;99.90;;;;;;5079390;28;20243;-38
2021/06/20 06:16:50;;;;;;;4.37;3.10;;;22.30;99.90;;;;;;5075876;28;20184;-38
2021/06/20 06:19:17;;;;;;;3.47;3.17;;;22.30;99.90;;;;;;5080410;28;20425;-38
2021/06/20 06:21:43;;;;;;;3.80;3.40;;;22.30;99.90;;;;;;5087287;28;20457;-38
2021/06/20 06:24:09;;;;;;;4.13;3.73;;;22.30;99.90;;;;;;5068993;28;20483;-39
2021/06/20 06:26:35;;;;;;;5.17;4.10;;;22.40;99.90;;;;;;5087197;28;20439;-38
2021/06/20 06:29:01;;;;;;;4.13;3.73;;;22.40;99.90;;;;;;5082793;28;20427;-38
2021/06/20 06:31:26;;;;;;;3.50;3.20;;;22.60;99.90;;;;;;5079691;28;20453;-38
2021/06/20 06:33:52;;;;;;;4.30;3.93;;;22.70;99.90;;;;;;5067574;28;20493;-39
2021/06/20 06:36:19;;;;;;;4.23;3.70;;;22.70;99.90;;;;;;5087070;28;20193;-38
2021/06/20 06:38:45;;;;;;;5.70;3.53;;;22.80;99.90;;;;;;5068887;28;20320;-38
2021/06/20 06:41:12;;;;;;;6.40;3.50;;;22.70;99.90;;;;;;5085341;28;20458;-38
2021/06/20 06:43:37;;;;;;;5.73;3.50;;;22.80;99.90;;;;;;5078344;28;20459;-38
2021/06/20 06:46:03;;;;;;;4.00;3.07;;;22.90;99.90;;;;;;5078488;28;20455;-38
2021/06/20 06:48:29;;;;;;;4.87;3.63;;;22.90;99.90;;;;;;5065885;28;20184;-38
2021/06/20 06:50:55;;;;;;;4.27;3.10;;;22.90;99.90;;;;;;5086327;28;20199;-38
2021/06/20 06:53:21;;;;;;;5.00;3.43;;;22.90;99.90;;;;;;5087198;28;20790;-38
2021/06/20 06:55:46;;;;;;;3.37;3.07;;;23.00;99.90;;;;;;5086782;28;20694;-38
2021/06/20 06:58:12;;;;;;;3.77;3.37;;;23.10;99.90;;;;;;5086937;28;20221;-38
2021/06/20 07:00:38;;;;;;;4.87;3.13;;;23.30;99.90;;;;;;5057490;28;20184;-38
2021/06/20 07:03:04;;;;;;;3.20;2.90;;;23.30;99.90;;;;;;5084654;28;20433;-38
2021/06/20 07:05:30;;;;;;;6.50;3.33;;;23.40;99.90;;;;;;5064403;28;20216;-39
2021/06/20 07:07:56;;;;;;;3.43;3.10;;;23.30;99.90;;;;;;5086919;28;20204;-38
2021/06/20 07:10:22;;;;;;;3.70;2.83;;;23.40;99.90;;;;;;5085910;28;20466;-38
2021/06/20 07:12:48;;;;;;;3.10;2.90;;;23.50;99.90;;;;;;5085738;28;20427;-39
2021/06/20 07:15:14;;;;;;;4.07;2.73;;;23.60;99.90;;;;;;5083941;28;20431;-38
2021/06/20 07:17:40;;;;;;;3.40;2.97;;;23.60;99.90;;;;;;5078043;28;20936;-39
2021/06/20 07:20:11;;;;;;;6.33;3.83;;;23.60;99.90;;;;;;5083481;28;20460;-39
2021/06/20 07:22:37;;;;;;;4.67;3.43;;;23.60;99.90;;;;;;5086562;28;20215;-38
2021/06/20 07:25:03;;;;;;;3.03;2.73;;;23.50;99.90;;;;;;5086548;28;20435;-38
2021/06/20 07:27:29;;;;;;;4.07;2.77;;;23.60;99.90;;;;;;5086439;28;20418;-39
2021/06/20 07:29:55;;;;;;;4.73;2.80;;;23.60;99.90;;;;;;5081708;28;20997;-39
2021/06/20 07:32:20;;;;;;;3.37;3.07;;;23.60;99.90;;;;;;5063137;28;20192;-39
2021/06/20 07:34:46;;;;;;;4.57;3.27;;;23.60;99.90;;;;;;5081977;28;20530;-39
2021/06/20 07:37:12;;;;;;;4.70;3.30;;;23.60;99.90;;;;;;5082612;28;20291;-39
2021/06/20 07:39:37;;;;;;;3.10;2.70;;;23.50;99.90;;;;;;5080927;28;20322;-38
2021/06/20 07:42:03;;;;;;;3.00;2.80;;;23.50;99.90;;;;;;5087152;28;20235;-39
2021/06/20 07:44:30;;;;;;;3.10;2.80;;;23.50;99.90;;;;;;5073309;28;20194;-39
2021/06/20 07:46:55;;;;;;;5.60;2.83;;;23.50;99.90;;;;;;5063901;28;20517;-39
2021/06/20 07:49:21;;;;;;;2.83;2.30;;;23.60;99.90;;;;;;5084032;28;20555;-39
2021/06/20 07:51:47;;;;;;;3.30;2.90;;;23.50;99.90;;;;;;5087738;28;20184;-39
2021/06/20 07:54:13;;;;;;;4.80;2.80;;;23.40;99.90;;;;;;5086021;28;20267;-39
2021/06/20 07:56:39;;;;;;;2.93;2.73;;;23.40;99.90;;;;;;5086778;28;20184;-39
2021/06/20 07:59:04;;;;;;;2.77;2.57;;;23.50;99.90;;;;;;5084293;28;21065;-39
2021/06/20 08:01:30;;;;;;;2.67;2.47;;;23.60;99.90;;;;;;5069482;28;20212;-39
2021/06/20 08:03:58;;;;;;;4.50;2.97;;;23.70;99.90;;;;;;5084482;28;20660;-38
2021/06/20 08:06:24;;;;;;;3.23;2.40;;;23.70;99.90;;;;;;5087940;28;20910;-38
2021/06/20 08:08:55;;;;;;;4.10;2.40;;;23.70;99.90;;;;;;5087141;28;20475;-38
2021/06/20 08:11:22;;;;;;;2.80;2.60;;;23.80;99.90;;;;;;5087973;28;20596;-39
2021/06/20 08:13:48;;;;;;;3.30;2.40;;;23.90;99.90;;;;;;5076158;28;20418;-39
2021/06/20 08:16:13;;;;;;;3.67;2.33;;;23.90;99.90;;;;;;5082596;28;20479;-38
2021/06/20 08:18:39;;;;;;;2.53;2.33;;;23.80;99.90;;;;;;5068944;28;20894;-38
2021/06/20 08:21:05;;;;;;;5.13;3.10;;;23.80;99.90;;;;;;5087582;28;20204;-38
2021/06/20 08:23:31;;;;;;;4.37;3.37;;;23.70;99.90;;;;;;5087857;28;20207;-38
2021/06/20 08:25:56;;;;;;;3.50;3.20;;;23.80;99.90;;;;;;5091532;28;20198;-39
2021/06/20 08:28:23;;;;;;;3.80;3.50;;;23.90;99.90;;;;;;5091336;28;20189;-38
2021/06/20 08:30:49;;;;;;;4.07;3.70;;;24.10;99.90;;;;;;5085790;28;20188;-38
2021/06/20 08:33:15;;;;;;;4.27;3.10;;;24.20;99.90;;;;;;5080809;28;20454;-38
2021/06/20 08:35:40;;;;;;;3.10;2.80;;;24.30;99.90;;;;;;5083803;28;20523;-38
2021/06/20 08:38:06;;;;;;;3.17;2.97;;;24.30;99.90;;;;;;5071362;28;20861;-38
2021/06/20 08:40:32;;;;;;;4.03;2.90;;;24.40;99.90;;;;;;5086735;28;20195;-38
2021/06/20 08:42:58;;;;;;;4.63;3.10;;;24.40;99.90;;;;;;5072646;28;20205;-39
2021/06/20 08:45:25;;;;;;;4.37;2.60;;;24.40;99.90;;;;;;5083094;28;20189;-38
2021/06/20 08:47:51;;;;;;;3.93;2.57;;;24.50;99.90;;;;;;5080276;28;20418;-38
2021/06/20 08:50:17;;;;;;;3.17;2.87;;;24.60;99.90;;;;;;5087194;28;20425;-38
2021/06/20 08:52:43;;;;;;;2.50;2.30;;;24.60;99.90;;;;;;5083966;28;20964;-39
2021/06/20 08:55:12;;;;;;;3.00;2.70;;;24.50;99.90;;;;;;5079131;28;20246;-38
2021/06/20 08:57:42;;;;;;;4.30;2.40;;;24.60;99.90;;;;;;5079691;28;20434;-38
2021/06/20 09:00:11;;;;;;;2.07;1.97;;;24.60;99.90;;;;;;5082616;28;20532;-38
2021/06/20 09:02:37;;;;;;;2.47;2.27;;;24.70;99.90;;;;;;5074332;28;20988;-38
2021/06/20 09:05:07;;;;;;;2.90;2.60;;;24.90;99.90;;;;;;5088019;28;20426;-38
2021/06/20 09:07:38;;;;;;;2.70;2.30;;;25.00;99.90;;;;;;5086473;28;20472;-38
2021/06/20 09:10:22;;;;;;;3.47;2.50;;;25.10;99.90;;;;;;5071237;28;20422;-38
2021/06/20 09:12:53;;;;;;;2.27;1.97;;;25.20;99.70;;;;;;5076782;28;20471;-39
2021/06/20 09:15:24;;;;;;;2.07;1.97;;;25.30;99.30;;;;;;5068528;28;20445;-38
2021/06/20 09:17:58;;;;;;;2.80;2.00;;;25.30;98.60;;;;;;5082580;28;20429;-39
2021/06/20 09:20:42;;;;;;;2.53;2.23;;;25.30;98.50;;;;;;5083173;28;20699;-38
2021/06/20 09:23:15;;;;;;;4.43;2.00;;;25.30;98.10;;;;;;5087633;28;20426;-38
2021/06/20 09:25:44;;;;;;;2.83;2.63;;;25.40;98.50;;;;;;5085516;28;20463;-38
2021/06/20 09:28:12;;;;;;;2.37;2.27;;;25.50;98.10;;;;;;5082304;28;20414;-38
2021/06/20 09:31:05;;;;;;;3.30;2.00;;;25.70;98.30;;;;;;5086436;28;20434;-38
2021/06/20 09:33:32;;;;;;;2.07;1.93;;;25.80;97.80;;;;;;5081709;28;20476;-38
2021/06/20 09:35:59;;;;;;;4.33;2.03;;;26.00;97.70;;;;;;5083275;28;20426;-39
2021/06/20 09:38:29;;;;;;;2.27;2.07;;;26.00;97.20;;;;;;5088236;28;20433;-39
2021/06/20 09:41:14;;;;;;;2.23;2.00;;;26.10;97.40;;;;;;5086287;28;20967;-38
2021/06/20 09:43:56;;;;;;;2.40;2.20;;;26.10;97.30;;;;;;5088132;28;20457;-39
2021/06/20 09:46:23;;;;;;;2.10;1.90;;;26.10;97.30;;;;;;5084101;28;20624;-38
2021/06/20 09:48:49;;;;;;;2.30;2.10;;;26.10;97.20;;;;;;5085013;28;20419;-38
2021/06/20 09:51:17;;;;;;;1.90;1.80;;;26.20;97.70;;;;;;5088315;28;20423;-38
2021/06/20 09:53:44;;;;;;;4.77;2.17;;;26.30;97.70;;;;;;5087905;28;20774;-39
2021/06/20 09:56:11;;;;;;;2.07;1.97;;;26.40;96.90;;;;;;5069950;28;20781;-38
2021/06/20 09:58:42;;;;;;;3.67;2.20;;;26.50;96.90;;;;;;5069450;28;20475;-38
2021/06/20 10:01:10;;;;;;;1.97;1.80;;;26.60;95.80;;;;;;5059865;28;21032;-39
2021/06/20 10:03:36;;;;;;;2.10;1.90;;;26.60;95.30;;;;;;5087377;28;20415;-38
2021/06/20 10:06:02;;;;;;;2.10;1.90;;;26.60;95.70;;;;;;5083839;28;20479;-38
2021/06/20 10:08:30;;;;;;;2.27;2.07;;;26.50;95.90;;;;;;5053088;28;20885;-38
2021/06/20 10:10:56;;;;;;;2.70;2.50;;;26.40;96.10;;;;;;5087125;28;20422;-39
2021/06/20 10:13:22;;;;;;;2.40;2.20;;;26.50;96.20;;;;;;5087852;28;20521;-38
2021/06/20 10:15:48;;;;;;;2.37;2.17;;;26.60;95.00;;;;;;5070120;28;21046;-38
2021/06/20 10:18:15;;;;;;;2.43;1.90;;;26.70;95.50;;;;;;5083695;28;20702;-38
2021/06/20 10:20:41;;;;;;;3.07;1.80;;;26.60;95.20;;;;;;5073216;28;20203;-38
2021/06/20 10:23:17;;;;;;;3.57;2.03;;;26.60;94.60;;;;;;5087610;28;20419;-39
2021/06/20 10:25:43;;;;;;;2.50;1.77;;;26.70;94.60;;;;;;5087727;28;20419;-39
2021/06/20 10:28:13;;;;;;;2.03;1.80;;;26.70;94.40;;;;;;5087554;28;20472;-38
2021/06/20 10:30:41;;;;;;;2.63;2.00;;;26.70;94.00;;;;;;5082916;28;20169;-38
2021/06/20 10:33:14;;;;;;;4.40;1.90;;;26.80;93.30;;;;;;5054218;28;20487;-38
2021/06/20 10:35:42;;;;;;;2.20;2.00;;;26.60;93.30;;;;;;5087013;28;20794;-39
2021/06/20 10:38:08;;;;;;;2.13;1.67;;;26.40;93.60;;;;;;5068915;28;20505;-39
2021/06/20 10:40:45;;;;;;;2.37;1.63;;;26.30;94.40;;;;;;5085579;28;20425;-38
2021/06/20 10:43:19;;;;;;;1.70;1.60;;;26.40;94.20;;;;;;5087219;28;20442;-38
2021/06/20 10:45:46;;;;;;;3.10;1.50;;;26.30;93.30;;;;;;5086085;28;20440;-38
2021/06/20 10:48:43;;;;;;;1.70;1.60;;;26.20;92.10;;;;;;5057676;28;20508;-38
2021/06/20 10:51:22;;;;;;;3.77;1.33;;;26.10;91.90;;;;;;5059611;28;20427;-39
2021/06/20 10:53:48;;;;;;;1.97;1.60;;;26.00;92.70;;;;;;5087365;28;20426;-38
2021/06/20 10:56:24;;;;;;;2.07;1.50;;;26.00;92.80;;;;;;5086534;28;20826;-39
2021/06/20 10:58:52;;;;;;;1.90;1.70;;;26.00;92.90;;;;;;5086148;28;20200;-38
2021/06/20 11:01:19;;;;;;;2.03;1.87;;;26.10;92.80;;;;;;5079141;28;20498;-38
2021/06/20 11:03:48;;;;;;;2.60;1.70;;;26.10;92.80;;;;;;5075526;28;20418;-39
2021/06/20 11:06:15;;;;;;;2.40;1.90;;;26.00;92.90;;;;;;5081926;28;20852;-38
2021/06/20 11:08:43;;;;;;;4.97;2.00;;;26.00;93.10;;;;;;5049224;28;20439;-39
2021/06/20 11:11:16;;;;;;;2.03;1.83;;;26.00;93.70;;;;;;5086171;28;20453;-39
2021/06/20 11:13:55;;;;;;;1.63;1.53;;;26.00;93.30;;;;;;5082543;28;20425;-38
2021/06/20 11:16:48;;;;;;;2.07;1.70;;;25.90;93.60;;;;;;5069559;28;20426;-39
2021/06/20 11:19:24;;;;;;;2.00;1.90;;;26.00;94.10;;;;;;5080267;28;20437;-39
2021/06/20 11:22:06;;;;;;;3.03;2.07;;;26.20;94.60;;;;;;5080994;28;20462;-39
2021/06/20 11:24:44;;;;;;;2.50;1.60;;;26.40;93.30;;;;;;5070090;28;20526;-39
2021/06/20 11:27:09;;;;;;;1.70;1.60;;;26.30;92.90;;;;;;5080001;28;20771;-38
2021/06/20 11:29:48;;;;;;;2.40;2.20;;;26.10;93.20;;;;;;5065357;28;20441;-38
2021/06/20 11:32:25;;;;;;;2.40;2.03;;;26.10;93.50;;;;;;5056361;28;20701;-39
2021/06/20 11:34:59;;;;;;;1.80;1.70;;;26.00;93.70;;;;;;5082070;28;20462;-38
2021/06/20 11:37:37;;;;;;;3.17;1.70;;;25.90;94.00;;;;;;5048275;28;20785;-39
2021/06/20 11:40:07;;;;;;;5.23;2.20;;;26.10;94.40;;;;;;5071486;28;20418;-38
2021/06/20 11:42:39;;;;;;;2.47;1.90;;;26.20;94.30;;;;;;5086393;28;20469;-39
2021/06/20 11:45:09;;;;;;;2.10;2.00;;;26.20;94.30;;;;;;5086150;28;20419;-39
2021/06/20 11:47:37;;;;;;;2.00;1.90;;;26.10;94.50;;;;;;5075069;28;20436;-39
2021/06/20 11:50:15;;;;;;;2.10;1.90;;;26.10;94.80;;;;;;5080899;28;20422;-39
2021/06/20 11:52:43;;;;;;;2.07;1.97;;;26.20;94.50;;;;;;5081041;28;20439;-38
2021/06/20 11:55:11;;;;;;;1.93;1.83;;;26.20;94.90;;;;;;5085988;28;20453;-39
2021/06/20 11:57:37;;;;;;;3.40;1.80;;;26.30;95.00;;;;;;5086284;28;20426;-39
2021/06/20 12:00:15;;;;;;;2.07;1.87;;;26.40;95.80;;;;;;5085931;28;20418;-39
2021/06/20 12:02:41;;;;;;;3.60;1.93;;;26.60;94.20;;;;;;5060949;28;20355;-39
2021/06/20 12:05:15;;;;;;;2.40;2.13;;;26.70;93.50;;;;;;5067819;28;20418;-38
2021/06/20 12:07:42;;;;;;;1.97;1.77;;;26.80;93.80;;;;;;5076421;28;20676;-39
2021/06/20 12:10:11;;;;;;;2.27;1.90;;;26.80;94.40;;;;;;5080365;28;20780;-38
2021/06/20 12:12:38;;;;;;;3.50;2.07;;;26.80;93.80;;;;;;5070723;28;20465;-39
2021/06/20 12:15:05;;;;;;;3.60;2.00;;;26.70;94.40;;;;;;5070713;28;20449;-39
2021/06/20 12:17:31;;;;;;;2.20;2.10;;;26.80;93.40;;;;;;5082707;28;20525;-39
2021/06/20 12:19:57;;;;;;;2.60;2.17;;;27.00;93.70;;;;;;5085356;28;20526;-39
2021/06/20 12:22:24;;;;;;;1.93;1.73;;;27.10;92.80;;;;;;5084004;28;20972;-39
2021/06/20 12:24:54;;;;;;;1.90;1.70;;;27.10;94.20;;;;;;5084478;28;20522;-39
2021/06/20 12:27:37;;;;;;;2.60;2.13;;;27.10;93.60;;;;;;5083952;28;20429;-39
2021/06/20 12:30:18;;;;;;;2.07;1.87;;;27.10;93.60;;;;;;5085672;28;20418;-39
2021/06/20 12:32:49;;;;;;;2.23;2.00;;;27.10;93.50;;;;;;5081983;28;20438;-38
2021/06/20 12:35:27;;;;;;;2.30;2.10;;;26.90;92.50;;;;;;5087957;28;20426;-39
2021/06/20 12:37:54;;;;;;;2.83;1.93;;;26.80;93.40;;;;;;5088564;28;20838;-39
2021/06/20 12:40:25;;;;;;;1.90;1.80;;;26.80;92.60;;;;;;5086582;28;20429;-39
2021/06/20 12:42:58;;;;;;;1.90;1.80;;;26.80;92.60;;;;;;5088134;28;20500;-39
2021/06/20 12:45:35;;;;;;;2.37;2.17;;;26.70;92.70;;;;;;5088509;28;20496;-39
2021/06/20 12:48:15;;;;;;;2.13;2.03;;;26.60;93.10;;;;;;5078969;28;20433;-38
2021/06/20 12:50:53;;;;;;;2.27;2.07;;;26.70;93.40;;;;;;5078924;28;20424;-39
2021/06/20 12:53:33;;;;;;;2.50;2.23;;;26.70;92.90;;;;;;5076237;28;20505;-39